createdAt,value
2023-12-22T00:01:25.133Z,99451.94
2023-12-22T00:03:51.641Z,99434.47
2023-12-22T00:06:18.628Z,99413.41
2023-12-22T00:08:45.214Z,99414.16
2023-12-22T00:11:11.755Z,99414.69
2023-12-22T00:13:38.282Z,99416.63
2023-12-22T00:16:05.258Z,99409.53
2023-12-22T00:18:32.136Z,99401.84
2023-12-22T00:20:58.806Z,99419.88
2023-12-22T00:23:25.309Z,99438.09
2023-12-22T00:25:51.968Z,99455.66
2023-12-22T00:28:18.647Z,99444.91
2023-12-22T00:30:45.765Z,99427.25
2023-12-22T00:33:12.418Z,99440.03
2023-12-22T00:35:39.139Z,99476.16
2023-12-22T00:38:05.859Z,99441.41
2023-12-22T00:40:32.466Z,99456.94
2023-12-22T00:42:58.920Z,99454.13
2023-12-22T00:45:25.437Z,99471.56
2023-12-22T00:47:52.246Z,99484.91
2023-12-22T00:50:18.905Z,99443.31
2023-12-22T00:52:45.423Z,99426.69
2023-12-22T00:55:11.966Z,99465.50
2023-12-22T00:57:38.470Z,99476.63
2023-12-22T01:00:06.903Z,99499.38
2023-12-22T01:02:33.396Z,99469.72
2023-12-22T01:05:00.077Z,99468.63
2023-12-22T01:07:26.978Z,99456.41
2023-12-22T01:09:53.595Z,99473.94
2023-12-22T01:12:20.084Z,99464.97
2023-12-22T01:14:46.640Z,99461.66
2023-12-22T01:17:13.271Z,99456.69
2023-12-22T01:19:39.866Z,99468.19
2023-12-22T01:22:06.410Z,99462.59
2023-12-22T01:24:32.943Z,99446.84
2023-12-22T01:27:00.496Z,99432.31
2023-12-22T01:29:27.057Z,99454.66
2023-12-22T01:31:53.681Z,99436.34
2023-12-22T01:34:20.278Z,99457.16
2023-12-22T01:36:46.776Z,99447.34
2023-12-22T01:39:13.331Z,99469.97
2023-12-22T01:41:39.814Z,99483.19
2023-12-22T01:44:06.367Z,99491.56
2023-12-22T01:46:34.859Z,99481.84
2023-12-22T01:49:04.753Z,99484.81
2023-12-22T01:51:33.602Z,99501.19
2023-12-22T01:54:01.707Z,99479.69
2023-12-22T01:56:28.718Z,99481.53
2023-12-22T01:59:00.360Z,99479.03
2023-12-22T02:01:28.382Z,99514.59
2023-12-22T02:03:55.728Z,99485.75
2023-12-22T02:06:22.933Z,99478.13
2023-12-22T02:08:49.520Z,99491.00
2023-12-22T02:11:16.700Z,99499.53
2023-12-22T02:13:44.782Z,99489.34
2023-12-22T02:16:17.536Z,99498.47
2023-12-22T02:18:47.456Z,99501.22
2023-12-22T02:21:13.997Z,99555.94
2023-12-22T02:23:40.519Z,99562.97
2023-12-22T02:26:37.419Z,99544.34
2023-12-22T02:29:04.770Z,99531.78
2023-12-22T02:31:45.676Z,99538.72
2023-12-22T02:34:15.302Z,99524.56
2023-12-22T02:36:43.720Z,99529.34
2023-12-22T02:39:12.263Z,99548.47
2023-12-22T02:41:38.931Z,99534.66
2023-12-22T02:44:05.706Z,99543.91
2023-12-22T02:46:32.220Z,99556.34
2023-12-22T02:48:58.714Z,99543.22
2023-12-22T02:51:25.208Z,99534.38
2023-12-22T02:53:51.676Z,99518.69
2023-12-22T02:56:18.133Z,99508.41
2023-12-22T02:58:44.720Z,99521.53
2023-12-22T03:01:11.319Z,99507.53
2023-12-22T03:03:37.962Z,99517.84
2023-12-22T03:06:04.860Z,99510.28
2023-12-22T03:08:31.351Z,99512.81
2023-12-22T03:10:57.914Z,99509.16
2023-12-22T03:13:24.555Z,99491.47
2023-12-22T03:15:51.292Z,99495.13
2023-12-22T03:18:17.925Z,99487.69
2023-12-22T03:20:44.451Z,99497.31
2023-12-22T03:23:10.964Z,99500.69
2023-12-22T03:25:37.607Z,99495.47
2023-12-22T03:28:04.577Z,99503.38
2023-12-22T03:30:31.060Z,99504.00
2023-12-22T03:32:57.653Z,99513.97
2023-12-22T03:35:24.244Z,99502.09
2023-12-22T03:37:51.082Z,99534.66
2023-12-22T03:40:17.772Z,99517.09
2023-12-22T03:42:44.418Z,99518.09
2023-12-22T03:45:10.938Z,99509.00
2023-12-22T03:47:37.441Z,99509.16
2023-12-22T03:50:04.192Z,99510.75
2023-12-22T03:52:30.680Z,99511.97
2023-12-22T03:54:57.123Z,99522.28
2023-12-22T03:57:23.608Z,99513.50
2023-12-22T03:59:50.122Z,99504.13
2023-12-22T04:02:16.842Z,99502.25
2023-12-22T04:04:43.769Z,99508.19
2023-12-22T04:07:10.333Z,99504.75
2023-12-22T04:09:39.081Z,99515.19
2023-12-22T04:12:06.097Z,99530.84
2023-12-22T04:14:32.589Z,99522.63
2023-12-22T04:16:59.224Z,99528.53
2023-12-22T04:19:25.840Z,99498.31
2023-12-22T04:21:52.364Z,99502.38
2023-12-22T04:24:18.978Z,99497.59
2023-12-22T04:26:45.466Z,99501.97
2023-12-22T04:29:12.081Z,99505.75
2023-12-22T04:31:38.644Z,99498.59
2023-12-22T04:34:05.152Z,99498.59
2023-12-22T04:36:31.664Z,99493.19
2023-12-22T04:38:58.179Z,99503.34
2023-12-22T04:41:24.688Z,99502.63
2023-12-22T04:43:51.242Z,99491.47
2023-12-22T04:46:17.764Z,99495.63
2023-12-22T04:48:44.292Z,99490.25
2023-12-22T04:51:10.904Z,99504.06
2023-12-22T04:53:37.539Z,99501.31
2023-12-22T04:56:04.470Z,99498.56
2023-12-22T04:58:31.009Z,99520.72
2023-12-22T05:00:57.524Z,99517.00
2023-12-22T05:03:24.126Z,99504.63
2023-12-22T05:05:50.678Z,99515.06
2023-12-22T05:08:17.466Z,99524.69
2023-12-22T05:10:44.112Z,99521.63
2023-12-22T05:13:10.705Z,99540.97
2023-12-22T05:15:37.195Z,99538.28
2023-12-22T05:18:04.059Z,99528.72
2023-12-22T05:20:30.598Z,99518.13
2023-12-22T05:22:58.079Z,99533.25
2023-12-22T05:25:24.646Z,99543.97
2023-12-22T05:27:51.396Z,99557.75
2023-12-22T05:30:18.075Z,99590.34
2023-12-22T05:32:45.857Z,99548.53
2023-12-22T05:35:12.603Z,99540.63
2023-12-22T05:37:39.303Z,99528.09
2023-12-22T05:40:07.856Z,99542.94
2023-12-22T05:42:34.574Z,99546.19
2023-12-22T05:45:01.133Z,99528.88
2023-12-22T05:47:27.867Z,99515.75
2023-12-22T05:49:54.491Z,99527.78
2023-12-22T05:52:21.107Z,99530.38
2023-12-22T05:54:47.612Z,99568.19
2023-12-22T05:57:14.110Z,99577.97
2023-12-22T05:59:40.564Z,99579.97
2023-12-22T06:02:07.189Z,99578.13
2023-12-22T06:04:33.765Z,99568.47
2023-12-22T06:07:00.298Z,99554.50
2023-12-22T06:09:26.841Z,99561.22
2023-12-22T06:11:53.410Z,99567.97
2023-12-22T06:14:19.875Z,99575.53
2023-12-22T06:16:46.677Z,99566.41
2023-12-22T06:19:14.237Z,99563.22
2023-12-22T06:21:41.337Z,99563.03
2023-12-22T06:24:09.247Z,99560.09
2023-12-22T06:26:35.809Z,99572.44
2023-12-22T06:29:02.453Z,99568.53
2023-12-22T06:31:29.036Z,99563.44
2023-12-22T06:33:55.792Z,99565.72
2023-12-22T06:36:24.159Z,99560.03
2023-12-22T06:38:51.902Z,99566.81
2023-12-22T06:41:28.221Z,99572.84
2023-12-22T06:43:56.347Z,99585.84
2023-12-22T06:46:24.698Z,99581.38
2023-12-22T06:48:51.376Z,99581.22
2023-12-22T06:51:22.597Z,99583.88
2023-12-22T06:53:49.960Z,99568.22
2023-12-22T06:56:21.590Z,99571.22
2023-12-22T06:58:49.887Z,99578.91
2023-12-22T07:01:24.290Z,99578.56
2023-12-22T07:03:51.763Z,99578.88
2023-12-22T07:06:22.240Z,99578.91
2023-12-22T07:09:14.184Z,99571.03
2023-12-22T07:11:47.053Z,99577.50
2023-12-22T07:14:13.697Z,99570.63
2023-12-22T07:16:40.454Z,99566.09
2023-12-22T07:19:07.074Z,99572.00
2023-12-22T07:21:33.705Z,99567.47
2023-12-22T07:24:01.165Z,99573.53
2023-12-22T07:26:28.444Z,99582.97
2023-12-22T07:28:55.391Z,99568.97
2023-12-22T07:31:22.281Z,99573.06
2023-12-22T07:33:49.498Z,99584.03
2023-12-22T07:36:16.068Z,99571.59
2023-12-22T07:38:42.621Z,99568.22
2023-12-22T07:41:09.592Z,99553.38
2023-12-22T07:43:36.647Z,99555.44
2023-12-22T07:46:03.591Z,99575.53
2023-12-22T07:48:30.192Z,99569.34
2023-12-22T07:50:56.801Z,99574.66
2023-12-22T07:53:23.499Z,99578.16
2023-12-22T07:55:49.999Z,99576.34
2023-12-22T07:58:18.493Z,99582.31
2023-12-22T08:00:45.048Z,99574.59
2023-12-22T08:03:11.558Z,99587.59
2023-12-22T08:05:38.182Z,99566.97
2023-12-22T08:08:05.100Z,99565.09
2023-12-22T08:10:31.643Z,99576.44
2023-12-22T08:12:58.195Z,99569.88
2023-12-22T08:15:29.779Z,99561.75
2023-12-22T08:18:02.858Z,99577.34
2023-12-22T08:20:33.422Z,99575.50
2023-12-22T08:23:06.930Z,99566.53
2023-12-22T08:25:36.635Z,99572.81
2023-12-22T08:28:03.463Z,99574.34
2023-12-22T08:30:29.914Z,99579.19
2023-12-22T08:32:56.612Z,99577.84
2023-12-22T08:35:23.269Z,99579.41
2023-12-22T08:37:50.183Z,99587.91
2023-12-22T08:40:16.854Z,99576.09
2023-12-22T08:42:43.539Z,99586.13
2023-12-22T08:45:10.233Z,99587.09
2023-12-22T08:47:36.714Z,99588.22
2023-12-22T08:50:05.714Z,99599.34
2023-12-22T08:52:32.559Z,99579.88
2023-12-22T08:54:59.072Z,99574.81
2023-12-22T08:57:26.223Z,99573.69
2023-12-22T08:59:52.723Z,99577.16
2023-12-22T09:02:19.355Z,99573.47
2023-12-22T09:04:45.952Z,99564.16
2023-12-22T09:07:12.515Z,99558.69
2023-12-22T09:09:39.000Z,99559.34
2023-12-22T09:12:05.883Z,99550.34
2023-12-22T09:14:32.594Z,99549.97
2023-12-22T09:16:59.170Z,99541.38
2023-12-22T09:19:25.973Z,99540.34
2023-12-22T09:21:52.526Z,99542.09
2023-12-22T09:24:19.007Z,99551.69
2023-12-22T09:26:45.554Z,99543.06
2023-12-22T09:29:12.145Z,99538.56
2023-12-22T09:31:38.654Z,99544.41
2023-12-22T09:34:05.327Z,99531.28
2023-12-22T09:36:31.897Z,99525.03
2023-12-22T09:38:58.439Z,99525.94
2023-12-22T09:41:24.965Z,99534.41
2023-12-22T09:43:53.487Z,99514.47
2023-12-22T09:46:22.700Z,99520.41
2023-12-22T09:48:52.806Z,99510.69
2023-12-22T09:51:20.266Z,99519.28
2023-12-22T09:53:48.721Z,99510.59
2023-12-22T09:56:16.436Z,99501.22
2023-12-22T09:58:44.446Z,99497.19
2023-12-22T10:01:11.089Z,99502.44
2023-12-22T10:03:38.831Z,99498.25
2023-12-22T10:06:05.715Z,99491.25
2023-12-22T10:08:33.570Z,99484.00
2023-12-22T10:11:00.505Z,99493.38
2023-12-22T10:13:29.275Z,99494.06
2023-12-22T10:15:56.953Z,99502.25
2023-12-22T10:18:23.917Z,99490.47
2023-12-22T10:20:50.466Z,99489.63
2023-12-22T10:23:16.982Z,99494.53
2023-12-22T10:25:43.767Z,99496.03
2023-12-22T10:28:14.437Z,99487.38
2023-12-22T10:30:41.683Z,99480.25
2023-12-22T10:33:08.718Z,99488.09
2023-12-22T10:35:35.346Z,99481.03
2023-12-22T10:38:04.491Z,99469.38
2023-12-22T10:40:31.354Z,99474.31
2023-12-22T10:42:59.627Z,99463.06
2023-12-22T10:45:26.261Z,99468.50
2023-12-22T10:47:54.402Z,99478.16
2023-12-22T10:50:26.254Z,99467.44
2023-12-22T10:52:52.968Z,99468.75
2023-12-22T10:55:20.382Z,99474.88
2023-12-22T10:57:47.894Z,99466.84
2023-12-22T11:00:17.626Z,99453.84
2023-12-22T11:02:48.470Z,99455.94
2023-12-22T11:05:18.816Z,99474.88
2023-12-22T11:07:50.472Z,99470.03
2023-12-22T11:10:21.403Z,99462.50
2023-12-22T11:12:49.336Z,99466.09
2023-12-22T11:15:16.285Z,99462.69
2023-12-22T11:17:44.065Z,99463.53
2023-12-22T11:20:11.845Z,99471.72
2023-12-22T11:22:39.986Z,99464.56
2023-12-22T11:25:10.708Z,99465.56
2023-12-22T11:27:38.908Z,99472.50
2023-12-22T11:30:09.565Z,99478.03
2023-12-22T11:32:37.381Z,99455.25
2023-12-22T11:35:06.436Z,99468.50
2023-12-22T11:37:36.627Z,99456.34
2023-12-22T11:40:04.049Z,99462.41
2023-12-22T11:42:37.604Z,99464.59
2023-12-22T11:45:05.066Z,99454.59
2023-12-22T11:47:31.779Z,99468.34
2023-12-22T11:49:58.459Z,99459.03
2023-12-22T11:52:31.534Z,99452.94
2023-12-22T11:54:58.221Z,99468.66
2023-12-22T11:57:33.761Z,99451.66
2023-12-22T12:00:04.425Z,99453.03
2023-12-22T12:02:32.323Z,99453.53
2023-12-22T12:05:03.456Z,99447.94
2023-12-22T12:07:53.085Z,99436.25
2023-12-22T12:10:36.787Z,99442.78
2023-12-22T12:13:06.936Z,99426.38
2023-12-22T12:15:35.543Z,99433.13
2023-12-22T12:18:02.995Z,99426.28
2023-12-22T12:20:30.080Z,99414.91
2023-12-22T12:22:57.095Z,99422.25
2023-12-22T12:28:05.147Z,99423.09
2023-12-22T12:30:32.876Z,99427.06
2023-12-22T12:33:10.508Z,99443.31
2023-12-22T12:35:41.196Z,99444.53
2023-12-22T12:38:09.703Z,99431.59
2023-12-22T12:40:40.363Z,99426.03
2023-12-22T12:43:07.286Z,99413.91
2023-12-22T12:45:33.822Z,99420.13
2023-12-22T12:48:05.152Z,99402.84
2023-12-22T12:50:35.341Z,99405.44
2023-12-22T12:53:08.734Z,99403.06
2023-12-22T12:55:35.491Z,99397.72
2023-12-22T12:58:02.138Z,99409.59
2023-12-22T13:00:28.562Z,99408.56
2023-12-22T13:03:06.167Z,99406.69
2023-12-22T13:05:33.720Z,99395.84
2023-12-22T13:08:13.939Z,99407.41
2023-12-22T13:10:42.615Z,99400.25
2023-12-22T13:13:09.499Z,99387.31
2023-12-22T13:15:36.122Z,99390.44
2023-12-22T13:18:02.938Z,99394.66
2023-12-22T13:20:29.936Z,99410.00
2023-12-22T13:22:56.878Z,99419.63
2023-12-22T13:25:25.137Z,99440.41
2023-12-22T13:27:53.326Z,99421.44
2023-12-22T13:30:37.530Z,99408.59
2023-12-22T13:33:04.493Z,99419.59
2023-12-22T13:35:31.474Z,99411.53
2023-12-22T13:37:58.255Z,99403.34
2023-12-22T13:40:25.568Z,99416.59
2023-12-22T13:42:59.224Z,99430.50
2023-12-22T13:45:26.766Z,99424.53
2023-12-22T13:47:53.869Z,99423.13
2023-12-22T13:50:24.549Z,99436.16
2023-12-22T13:52:52.415Z,99439.00
2023-12-22T13:55:24.264Z,99446.66
2023-12-22T13:58:00.213Z,99450.47
2023-12-22T14:00:29.283Z,99449.94
2023-12-22T14:02:55.973Z,99454.44
2023-12-22T14:05:23.113Z,99446.72
2023-12-22T14:07:51.221Z,99445.13
2023-12-22T14:10:18.037Z,99461.53
2023-12-22T14:12:44.739Z,99454.94
2023-12-22T14:15:12.450Z,99448.03
2023-12-22T14:17:39.492Z,99467.59
2023-12-22T14:20:08.985Z,99464.31
2023-12-22T14:22:35.768Z,99451.13
2023-12-22T14:25:02.366Z,99467.84
2023-12-22T14:27:29.057Z,99460.75
2023-12-22T14:29:55.644Z,99470.47
2023-12-22T14:32:22.138Z,99489.59
2023-12-22T14:34:48.896Z,99481.28
2023-12-22T14:37:17.610Z,99504.00
2023-12-22T14:39:44.671Z,99490.31
2023-12-22T14:42:11.183Z,99486.72
2023-12-22T14:44:39.401Z,99493.94
2023-12-22T14:47:07.798Z,99484.63
2023-12-22T14:49:35.453Z,99510.91
2023-12-22T14:52:02.053Z,99505.38
2023-12-22T14:54:28.575Z,99505.97
2023-12-22T14:56:55.568Z,99504.97
2023-12-22T14:59:22.278Z,99505.19
2023-12-22T15:01:50.104Z,99515.16
2023-12-22T15:04:17.372Z,99501.97
2023-12-22T15:06:46.633Z,99509.13
2023-12-22T15:09:13.514Z,99509.34
2023-12-22T15:11:46.448Z,99506.09
2023-12-22T15:14:13.624Z,99515.97
2023-12-22T15:16:46.034Z,99507.03
2023-12-22T15:19:13.390Z,99503.75
2023-12-22T15:21:40.190Z,99504.53
2023-12-22T15:24:07.472Z,99508.97
2023-12-22T15:26:37.666Z,99561.19
2023-12-22T15:29:04.853Z,99526.41
2023-12-22T15:31:35.234Z,99495.22
2023-12-22T15:34:04.270Z,99566.53
2023-12-22T15:36:31.742Z,99551.69
2023-12-22T15:38:58.425Z,99527.72
2023-12-22T15:41:29.878Z,99540.75
2023-12-22T15:43:56.360Z,99557.94
2023-12-22T15:46:23.330Z,99555.97
2023-12-22T15:48:49.978Z,99564.81
2023-12-22T15:51:20.294Z,99548.34
2023-12-22T15:53:47.666Z,99538.38
2023-12-22T15:56:14.329Z,99541.34
2023-12-22T15:58:45.120Z,99535.16
2023-12-22T16:01:17.981Z,99549.69
2023-12-22T16:03:49.524Z,99532.78
2023-12-22T16:06:16.565Z,99558.47
2023-12-22T16:08:43.135Z,99540.44
2023-12-22T16:11:09.807Z,99550.69
2023-12-22T16:13:36.468Z,99579.22
2023-12-22T16:16:04.629Z,99587.78
2023-12-22T16:18:31.124Z,99575.91
2023-12-22T16:20:57.877Z,99535.81
2023-12-22T16:23:24.530Z,99578.97
2023-12-22T16:25:52.942Z,99580.97
2023-12-22T16:28:19.926Z,99604.31
2023-12-22T16:30:47.649Z,99585.66
2023-12-22T16:33:15.408Z,99587.59
2023-12-22T16:35:42.883Z,99579.88
2023-12-22T16:38:09.601Z,99581.91
2023-12-22T16:40:36.212Z,99575.13
2023-12-22T16:43:02.819Z,99571.81
2023-12-22T16:45:29.282Z,99579.97
2023-12-22T16:47:55.896Z,99590.34
2023-12-22T16:50:22.461Z,99587.72
2023-12-22T16:52:49.309Z,99594.03
2023-12-22T16:55:19.106Z,99600.34
2023-12-22T16:57:45.989Z,99598.84
2023-12-22T17:00:14.479Z,99595.31
2023-12-22T17:02:41.377Z,99593.25
2023-12-22T17:05:09.893Z,99588.81
2023-12-22T17:07:39.001Z,99593.09
2023-12-22T17:10:07.254Z,99564.25
2023-12-22T17:12:34.192Z,99578.97
2023-12-22T17:15:00.793Z,99575.28
2023-12-22T17:17:28.250Z,99588.59
2023-12-22T17:19:55.103Z,99589.78
2023-12-22T17:22:21.784Z,99583.25
2023-12-22T17:24:48.405Z,99575.97
2023-12-22T17:27:17.450Z,99579.63
2023-12-22T17:29:43.988Z,99588.59
2023-12-22T17:32:11.607Z,99585.75
2023-12-22T17:34:38.707Z,99592.31
2023-12-22T17:37:05.639Z,99600.38
2023-12-22T17:39:35.095Z,99620.19
2023-12-22T17:42:03.026Z,99630.59
2023-12-22T17:44:29.491Z,99614.88
2023-12-22T17:46:56.022Z,99616.34
2023-12-22T17:49:22.510Z,99624.38
2023-12-22T17:51:49.106Z,99643.56
2023-12-22T17:54:15.602Z,99628.50
2023-12-22T17:56:42.036Z,99635.91
2023-12-22T17:59:08.581Z,99613.84
2023-12-22T18:01:35.193Z,99612.84
2023-12-22T18:04:01.834Z,99618.16
2023-12-22T18:06:28.385Z,99617.84
2023-12-22T18:08:54.872Z,99617.84
2023-12-22T18:11:21.402Z,99613.81
2023-12-22T18:13:47.933Z,99610.47
2023-12-22T18:16:14.649Z,99619.13
2023-12-22T18:18:42.813Z,99618.84
2023-12-22T18:21:09.574Z,99644.03
2023-12-22T18:23:36.256Z,99636.63
2023-12-22T18:26:03.642Z,99624.97
2023-12-22T18:28:30.308Z,99622.06
2023-12-22T18:31:01.368Z,99627.84
2023-12-22T18:33:28.056Z,99643.50
2023-12-22T18:35:56.140Z,99642.50
2023-12-22T18:38:22.756Z,99653.00
2023-12-22T18:40:49.488Z,99674.91
2023-12-22T18:43:16.086Z,99659.09
2023-12-22T18:45:45.547Z,99654.47
2023-12-22T18:48:17.863Z,99657.22
2023-12-22T18:50:48.469Z,99674.16
2023-12-22T18:53:19.836Z,99679.00
2023-12-22T18:55:58.656Z,99690.31
2023-12-22T18:58:29.822Z,99695.75
2023-12-22T19:00:56.545Z,99698.75
2023-12-22T19:03:23.153Z,99690.56
2023-12-22T19:05:50.089Z,99682.09
2023-12-22T19:08:16.913Z,99687.75
2023-12-22T19:10:43.483Z,99688.69
2023-12-22T19:13:10.016Z,99695.09
2023-12-22T19:15:37.021Z,99694.19
2023-12-22T19:18:04.525Z,99680.53
2023-12-22T19:20:31.496Z,99690.31
2023-12-22T19:22:57.999Z,99681.91
2023-12-22T19:25:24.688Z,99689.19
2023-12-22T19:27:51.514Z,99690.47
2023-12-22T19:30:18.391Z,99705.63
2023-12-22T19:32:46.392Z,99713.06
2023-12-22T19:35:13.563Z,99700.88
2023-12-22T19:37:40.261Z,99707.88
2023-12-22T19:40:08.075Z,99692.13
2023-12-22T19:42:34.656Z,99694.72
2023-12-22T19:45:01.157Z,99719.44
2023-12-22T19:47:27.685Z,99728.59
2023-12-22T19:49:54.229Z,99742.09
2023-12-22T19:52:21.581Z,99736.78
2023-12-22T19:54:48.051Z,99749.63
2023-12-22T19:57:14.676Z,99759.34
2023-12-22T19:59:41.125Z,99755.34
2023-12-22T20:02:07.710Z,99797.41
2023-12-22T20:04:36.597Z,99762.59
2023-12-22T20:07:03.954Z,99812.19
2023-12-22T20:09:30.652Z,99774.28
2023-12-22T20:11:58.392Z,99770.63
2023-12-22T20:14:25.191Z,99780.56
2023-12-22T20:16:53.900Z,99793.66
2023-12-22T20:19:21.058Z,99798.97
2023-12-22T20:21:47.676Z,99851.50
2023-12-22T20:24:14.763Z,99780.97
2023-12-22T20:26:41.430Z,99799.13
2023-12-22T20:29:09.776Z,99813.75
2023-12-22T20:31:38.122Z,99806.63
2023-12-22T20:34:04.970Z,99806.81
2023-12-22T20:36:31.718Z,99808.25
2023-12-22T20:38:58.228Z,99808.28
2023-12-22T20:41:24.934Z,99826.41
2023-12-22T20:43:51.606Z,99820.25
2023-12-22T20:46:18.250Z,99828.19
2023-12-22T20:48:45.013Z,99823.72
2023-12-22T20:51:11.716Z,99816.91
2023-12-22T20:53:38.832Z,99820.38
2023-12-22T20:56:19.980Z,99836.75
2023-12-22T20:58:46.662Z,99848.28
2023-12-22T21:01:16.190Z,99910.28
2023-12-22T21:03:45.216Z,99946.22
2023-12-22T21:06:12.104Z,99944.00
2023-12-22T21:08:38.898Z,99913.56
2023-12-22T21:11:05.991Z,99903.75
2023-12-22T21:13:32.728Z,99911.94
2023-12-22T21:15:59.637Z,99941.84
2023-12-22T21:18:26.310Z,99941.03
2023-12-22T21:20:53.026Z,99930.34
2023-12-22T21:23:20.512Z,99924.94
2023-12-22T21:25:47.052Z,99957.28
2023-12-22T21:28:14.285Z,99930.97
2023-12-22T21:30:41.011Z,99954.81
2023-12-22T21:33:07.654Z,99960.66
2023-12-22T21:35:34.295Z,99953.16
2023-12-22T21:38:00.941Z,99953.66
2023-12-22T21:40:27.764Z,99944.69
2023-12-22T21:42:55.570Z,99950.47
2023-12-22T21:45:22.519Z,99949.28
2023-12-22T21:47:49.562Z,99971.63
2023-12-22T21:50:16.432Z,99964.00
2023-12-22T21:52:44.660Z,99974.56
2023-12-22T21:55:11.579Z,99976.13
2023-12-22T21:57:38.149Z,99973.16
2023-12-22T22:00:07.299Z,99969.25
2023-12-22T22:02:34.073Z,99982.25
2023-12-22T22:05:01.585Z,99996.28
2023-12-22T22:07:28.191Z,99990.00
2023-12-22T22:09:54.707Z,99996.94
2023-12-22T22:12:21.238Z,99995.38
2023-12-22T22:14:47.762Z,99990.91
2023-12-22T22:17:14.713Z,100024.19
2023-12-22T22:19:41.474Z,100022.44
2023-12-22T22:22:08.102Z,100009.47
2023-12-22T22:24:37.467Z,100015.59
2023-12-22T22:27:06.085Z,100023.19
2023-12-22T22:29:32.894Z,100026.84
2023-12-22T22:31:59.502Z,100042.91
2023-12-22T22:34:26.120Z,100043.19
2023-12-22T22:36:52.692Z,100053.69
2023-12-22T22:39:19.389Z,100067.56
2023-12-22T22:41:45.951Z,100075.06
2023-12-22T22:44:12.567Z,100102.84
2023-12-22T22:46:39.075Z,100107.44
2023-12-22T22:49:05.824Z,100101.59
2023-12-22T22:51:32.614Z,100110.72
2023-12-22T22:53:59.150Z,100102.22
2023-12-22T22:56:25.726Z,100107.09
2023-12-22T22:58:52.455Z,100107.16
2023-12-22T23:01:19.340Z,100108.47
2023-12-22T23:03:45.969Z,100108.69
2023-12-22T23:06:12.584Z,100114.81
2023-12-22T23:08:39.262Z,100107.03
2023-12-22T23:11:05.841Z,100117.44
2023-12-22T23:13:32.433Z,100116.88
2023-12-22T23:15:59.014Z,100112.44
2023-12-22T23:18:25.653Z,100128.25
2023-12-22T23:20:52.377Z,100120.44
2023-12-22T23:23:19.164Z,100133.84
2023-12-22T23:25:47.246Z,100133.59
2023-12-22T23:28:13.748Z,100119.38
2023-12-22T23:30:41.557Z,100120.06
2023-12-22T23:33:08.275Z,100124.56
2023-12-22T23:35:34.816Z,100130.75
2023-12-22T23:38:01.950Z,100139.28
2023-12-22T23:40:28.496Z,100142.41
2023-12-22T23:42:54.979Z,100138.44
2023-12-22T23:45:21.504Z,100133.72
2023-12-22T23:47:48.425Z,100138.34
2023-12-22T23:50:15.412Z,100135.16
2023-12-22T23:52:42.033Z,100137.53
2023-12-22T23:55:08.729Z,100126.31
2023-12-22T23:57:35.194Z,100132.41
